Time;durP1;ratioP1;P1;durP2;ratioP2;P2;SDS_P1;SDS_P2;PMS_P1;PMS_P2;Temp;Humidity;BMP_temperature;BMP_pressure;BME280_temperature;BME280_humidity;BME280_pressure;Samples;Min_cycle;Max_cycle;Signal;HPM_P1;HPM_P2
2023/07/25 00:01:39;;;;;;;5.77;3.90;;;;;;;;;;4996558;28;20701;-72
2023/07/25 00:04:43;;;;;;;7.47;3.23;;;;;;;;;;4996245;28;20186;-72
2023/07/25 00:07:47;;;;;;;10.83;3.90;;;;;;;;;;4996378;28;20202;-72
2023/07/25 00:10:52;;;;;;;7.80;3.40;;;;;;;;;;4996487;28;20213;-73
2023/07/25 00:13:56;;;;;;;8.03;3.10;;;;;;;;;;4996333;28;20183;-73
2023/07/25 00:17:01;;;;;;;6.37;3.50;;;;;;;;;;4994283;28;20182;-73
2023/07/25 00:20:05;;;;;;;5.10;3.57;;;;;;;;;;4996070;28;20214;-73
2023/07/25 00:23:09;;;;;;;4.27;3.00;;;;;;;;;;4996156;28;20206;-73
2023/07/25 00:26:13;;;;;;;5.40;3.23;;;;;;;;;;4995083;28;20186;-73
2023/07/25 00:29:18;;;;;;;4.93;3.00;;;;;;;;;;4995629;28;20190;-73
2023/07/25 00:32:22;;;;;;;4.23;3.40;;;;;;;;;;4995064;28;20700;-73
2023/07/25 00:35:26;;;;;;;7.10;3.27;;;;;;;;;;4995051;28;20186;-73
2023/07/25 00:38:30;;;;;;;6.60;3.50;;;;;;;;;;4995467;28;20182;-73
2023/07/25 00:41:34;;;;;;;7.53;3.10;;;;;;;;;;4994758;28;20221;-73
2023/07/25 00:44:38;;;;;;;5.10;3.60;;;;;;;;;;4994709;28;20190;-72
2023/07/25 00:47:42;;;;;;;8.87;3.73;;;;;;;;;;4994938;28;20182;-73
2023/07/25 00:50:46;;;;;;;4.50;3.00;;;;;;;;;;4995320;28;20214;-73
2023/07/25 00:53:51;;;;;;;6.00;3.27;;;;;;;;;;4995057;28;20186;-73
2023/07/25 00:56:55;;;;;;;6.60;3.43;;;;;;;;;;4994703;28;20182;-73
2023/07/25 00:59:59;;;;;;;6.77;3.30;;;;;;;;;;4994348;28;20210;-73
2023/07/25 01:03:04;;;;;;;6.17;3.37;;;;;;;;;;4994648;28;20194;-72
2023/07/25 01:06:12;;;;;;;7.67;3.60;;;;;;;;;;4995605;28;20194;-73
2023/07/25 01:09:37;;;;;;;7.27;3.37;;;;;;;;;;4994473;28;20202;-73
2023/07/25 01:12:41;;;;;;;4.50;3.20;;;;;;;;;;4983512;28;20700;-72
2023/07/25 01:15:45;;;;;;;3.50;3.20;;;;;;;;;;4995457;28;20178;-72
2023/07/25 01:18:51;;;;;;;8.57;3.20;;;;;;;;;;4994273;28;20201;-73
2023/07/25 01:21:57;;;;;;;6.70;3.13;;;;;;;;;;4994024;28;20214;-73
2023/07/25 01:25:01;;;;;;;6.67;3.47;;;;;;;;;;4994256;28;20190;-73
2023/07/25 01:28:05;;;;;;;5.90;3.60;;;;;;;;;;4994690;28;20182;-73
2023/07/25 01:31:10;;;;;;;7.70;3.47;;;;;;;;;;4995107;28;20210;-73
2023/07/25 01:34:14;;;;;;;4.67;3.30;;;;;;;;;;4994880;28;20186;-73
2023/07/25 01:37:18;;;;;;;3.87;3.37;;;;;;;;;;4994777;28;20526;-73
2023/07/25 01:40:22;;;;;;;3.80;3.00;;;;;;;;;;4994043;28;20197;-73
2023/07/25 01:43:26;;;;;;;5.47;3.67;;;;;;;;;;4994659;28;20197;-73
2023/07/25 01:46:31;;;;;;;5.47;3.77;;;;;;;;;;4993867;28;20182;-73
2023/07/25 01:49:34;;;;;;;5.10;3.23;;;;;;;;;;4994070;28;20182;-73
2023/07/25 01:52:38;;;;;;;9.33;4.00;;;;;;;;;;4993670;28;20685;-73
2023/07/25 01:55:43;;;;;;;8.10;3.37;;;;;;;;;;4993382;28;20178;-73
2023/07/25 01:58:47;;;;;;;8.40;3.93;;;;;;;;;;4993650;28;20182;-72
2023/07/25 02:01:51;;;;;;;4.20;3.23;;;;;;;;;;4993173;28;20217;-72
2023/07/25 02:04:55;;;;;;;5.77;3.77;;;;;;;;;;4993282;28;20193;-72
2023/07/25 02:07:59;;;;;;;11.50;3.53;;;;;;;;;;4993242;28;20178;-72
2023/07/25 02:11:03;;;;;;;7.00;3.63;;;;;;;;;;4993300;28;20210;-72
2023/07/25 02:14:07;;;;;;;5.23;3.43;;;;;;;;;;4993514;28;20178;-72
2023/07/25 02:17:11;;;;;;;7.60;3.63;;;;;;;;;;4993666;28;20186;-72
2023/07/25 02:20:15;;;;;;;4.07;3.67;;;;;;;;;;4993958;28;20229;-72
2023/07/25 02:23:20;;;;;;;5.00;3.63;;;;;;;;;;4993295;28;20522;-72
2023/07/25 02:26:24;;;;;;;4.13;3.50;;;;;;;;;;4993252;28;20182;-72
2023/07/25 02:29:28;;;;;;;6.57;3.80;;;;;;;;;;4993811;28;20182;-72
2023/07/25 02:32:32;;;;;;;7.97;3.57;;;;;;;;;;4993910;28;20209;-72
2023/07/25 02:35:36;;;;;;;6.00;3.60;;;;;;;;;;4993456;28;20186;-72
2023/07/25 02:38:40;;;;;;;4.20;3.47;;;;;;;;;;4994205;28;20178;-72
2023/07/25 02:41:46;;;;;;;4.97;4.00;;;;;;;;;;4996886;28;20225;-72
2023/07/25 02:44:50;;;;;;;6.30;3.90;;;;;;;;;;4997970;28;20190;-72
2023/07/25 02:47:54;;;;;;;7.60;3.73;;;;;;;;;;4997091;28;20182;-72
2023/07/25 02:50:59;;;;;;;5.57;3.60;;;;;;;;;;4996706;28;20218;-72
2023/07/25 02:54:03;;;;;;;6.13;3.30;;;;;;;;;;4996754;28;20190;-72
2023/07/25 02:57:08;;;;;;;5.13;3.73;;;;;;;;;;4997642;28;20186;-72
2023/07/25 03:00:13;;;;;;;5.50;3.03;;;;;;;;;;4997623;28;20185;-72
2023/07/25 03:03:16;;;;;;;4.23;3.47;;;;;;;;;;4996881;28;20190;-72
2023/07/25 03:06:21;;;;;;;5.63;3.33;;;;;;;;;;4996772;28;20182;-72
2023/07/25 03:09:25;;;;;;;4.67;3.50;;;;;;;;;;4997608;28;20181;-72
2023/07/25 03:12:29;;;;;;;6.27;3.93;;;;;;;;;;4996349;28;20566;-72
2023/07/25 03:15:33;;;;;;;3.77;2.97;;;;;;;;;;4996653;28;20178;-72
2023/07/25 03:18:38;;;;;;;6.60;3.50;;;;;;;;;;4997846;28;20190;-72
2023/07/25 03:21:42;;;;;;;6.93;3.77;;;;;;;;;;4996460;28;20225;-72
2023/07/25 03:24:47;;;;;;;4.67;3.40;;;;;;;;;;4996511;28;20186;-72
2023/07/25 03:27:51;;;;;;;4.00;3.07;;;;;;;;;;4996450;28;20186;-72
2023/07/25 03:30:55;;;;;;;3.90;3.20;;;;;;;;;;4996234;28;20685;-72
2023/07/25 03:33:59;;;;;;;5.93;3.40;;;;;;;;;;4996522;28;20202;-72
2023/07/25 03:37:03;;;;;;;4.37;3.57;;;;;;;;;;4996238;28;20182;-72
2023/07/25 03:40:08;;;;;;;10.63;3.57;;;;;;;;;;4996230;28;20187;-72
2023/07/25 03:43:12;;;;;;;8.20;3.70;;;;;;;;;;4995871;28;20178;-72
2023/07/25 03:46:16;;;;;;;6.13;3.80;;;;;;;;;;4996701;28;20191;-72
2023/07/25 03:49:20;;;;;;;7.53;3.90;;;;;;;;;;4996017;28;20190;-72
2023/07/25 03:52:24;;;;;;;7.50;4.50;;;;;;;;;;4995338;28;20239;-72
2023/07/25 03:55:28;;;;;;;9.10;4.50;;;;;;;;;;4995641;28;20174;-72
2023/07/25 03:58:33;;;;;;;7.13;4.00;;;;;;;;;;4995597;28;20178;-72
2023/07/25 04:01:37;;;;;;;9.20;4.10;;;;;;;;;;4995943;28;20225;-72
2023/07/25 04:04:41;;;;;;;5.33;4.00;;;;;;;;;;4995542;28;20190;-72
2023/07/25 04:07:45;;;;;;;6.57;4.23;;;;;;;;;;4995953;28;20182;-72
2023/07/25 04:10:49;;;;;;;8.40;4.47;;;;;;;;;;4995630;28;20217;-72
2023/07/25 04:13:53;;;;;;;7.40;4.37;;;;;;;;;;4995595;28;20187;-72
2023/07/25 04:16:57;;;;;;;4.27;3.37;;;;;;;;;;4996523;28;20201;-72
2023/07/25 04:20:01;;;;;;;8.37;4.13;;;;;;;;;;5018982;22;20209;-85
2023/07/25 04:23:06;;;;;;;6.07;3.43;;;;;;;;;;4979431;28;20195;-85
2023/07/25 04:26:10;;;;;;;6.23;3.70;;;;;;;;;;4991262;28;20197;-85
2023/07/25 04:29:14;;;;;;;7.23;3.87;;;;;;;;;;4979251;28;20554;-84
2023/07/25 04:32:18;;;;;;;6.97;3.90;;;;;;;;;;4971394;28;20171;-85
2023/07/25 04:35:22;;;;;;;4.87;3.67;;;;;;;;;;4961520;28;20186;-85
2023/07/25 04:38:27;;;;;;;7.07;3.80;;;;;;;;;;4959908;28;20534;-85
2023/07/25 04:41:31;;;;;;;8.53;3.73;;;;;;;;;;4948455;28;20223;-85
2023/07/25 04:44:35;;;;;;;5.27;3.83;;;;;;;;;;4970431;28;20179;-84
2023/07/25 04:47:39;;;;;;;7.80;4.00;;;;;;;;;;4959741;28;20183;-85
2023/07/25 04:50:44;;;;;;;4.50;3.57;;;;;;;;;;4970320;28;20222;-83
2023/07/25 04:53:48;;;;;;;8.07;4.43;;;;;;;;;;4955882;28;20206;-84
2023/07/25 04:56:52;;;;;;;6.03;3.63;;;;;;;;;;4966908;28;20227;-84
2023/07/25 04:59:56;;;;;;;5.13;3.50;;;;;;;;;;4967812;28;20353;-84
2023/07/25 05:03:00;;;;;;;4.33;3.53;;;;;;;;;;4964824;28;20179;-86
2023/07/25 05:06:05;;;;;;;4.27;2.97;;;;;;;;;;4964306;28;20183;-86
2023/07/25 05:09:09;;;;;;;8.43;3.40;;;;;;;;;;4942661;28;20182;-86
2023/07/25 05:12:13;;;;;;;5.53;3.60;;;;;;;;;;4942322;28;20179;-87
2023/07/25 05:15:17;;;;;;;8.47;3.33;;;;;;;;;;4953267;28;20646;-87
2023/07/25 05:18:21;;;;;;;6.13;3.40;;;;;;;;;;4953445;28;20183;-86
2023/07/25 05:21:25;;;;;;;3.93;3.13;;;;;;;;;;4956548;28;20230;-87
2023/07/25 05:24:31;;;;;;;6.90;3.43;;;;;;;;;;4954772;28;20625;-86
2023/07/25 05:27:35;;;;;;;6.40;3.83;;;;;;;;;;4943726;28;20175;-81
2023/07/25 05:30:39;;;;;;;5.70;4.07;;;;;;;;;;4954571;28;20219;-81
2023/07/25 05:33:43;;;;;;;8.10;3.83;;;;;;;;;;4954695;28;20175;-82
2023/07/25 05:36:47;;;;;;;6.00;3.73;;;;;;;;;;4954776;28;20186;-82
2023/07/25 05:39:51;;;;;;;7.80;4.30;;;;;;;;;;4965299;28;20183;-82
2023/07/25 05:42:55;;;;;;;7.73;4.27;;;;;;;;;;4964984;28;20207;-81
2023/07/25 05:45:59;;;;;;;6.67;4.57;;;;;;;;;;4944383;28;20179;-82
2023/07/25 05:49:03;;;;;;;6.77;4.50;;;;;;;;;;4955405;28;20634;-82
2023/07/25 05:52:08;;;;;;;6.33;3.90;;;;;;;;;;4966841;28;20179;-82
2023/07/25 05:55:12;;;;;;;6.60;4.13;;;;;;;;;;4978666;28;20183;-82
2023/07/25 05:58:17;;;;;;;8.20;4.50;;;;;;;;;;4966264;28;20183;-82
2023/07/25 06:01:21;;;;;;;6.63;3.73;;;;;;;;;;4966075;28;20227;-82
2023/07/25 06:04:25;;;;;;;5.10;4.23;;;;;;;;;;4966383;28;20178;-82
2023/07/25 06:07:29;;;;;;;7.43;4.30;;;;;;;;;;4955092;28;20661;-82
2023/07/25 06:10:37;;;;;;;5.47;4.33;;;;;;;;;;4954633;28;20218;-82
2023/07/25 06:13:42;;;;;;;9.27;4.33;;;;;;;;;;4954208;28;20175;-81
2023/07/25 06:16:46;;;;;;;7.93;4.40;;;;;;;;;;4943475;28;20187;-82
2023/07/25 06:19:50;;;;;;;8.93;4.40;;;;;;;;;;4964633;28;20182;-85
2023/07/25 06:22:54;;;;;;;6.03;4.23;;;;;;;;;;4954137;28;20665;-82
2023/07/25 06:25:58;;;;;;;7.37;4.13;;;;;;;;;;4976767;28;20183;-82
2023/07/25 06:29:03;;;;;;;8.77;4.27;;;;;;;;;;4953746;28;20183;-82
2023/07/25 06:32:07;;;;;;;5.07;4.10;;;;;;;;;;4954215;28;20653;-82
2023/07/25 06:35:11;;;;;;;5.10;3.77;;;;;;;;;;4953478;28;20634;-82
2023/07/25 06:38:15;;;;;;;5.90;4.10;;;;;;;;;;4953234;28;20199;-83
2023/07/25 06:41:20;;;;;;;8.10;3.87;;;;;;;;;;4964203;28;20222;-83
2023/07/25 06:44:24;;;;;;;7.10;3.80;;;;;;;;;;4964491;28;20183;-82
2023/07/25 06:47:28;;;;;;;7.77;3.30;;;;;;;;;;4954498;28;20178;-82
2023/07/25 06:50:33;;;;;;;5.27;3.83;;;;;;;;;;4965373;28;20210;-84
2023/07/25 06:53:37;;;;;;;6.17;4.00;;;;;;;;;;4954515;28;20179;-82
2023/07/25 06:56:41;;;;;;;5.20;3.57;;;;;;;;;;4965986;28;20187;-82
2023/07/25 06:59:45;;;;;;;5.53;3.33;;;;;;;;;;4954316;28;20183;-81
2023/07/25 07:02:49;;;;;;;4.27;3.50;;;;;;;;;;4965369;28;20214;-83
2023/07/25 07:05:54;;;;;;;5.80;3.47;;;;;;;;;;4954032;28;20526;-82
2023/07/25 07:08:58;;;;;;;5.67;3.73;;;;;;;;;;4954428;28;20179;-82
2023/07/25 07:12:03;;;;;;;4.90;4.20;;;;;;;;;;4965371;28;20685;-82
2023/07/25 07:15:08;;;;;;;4.13;3.57;;;;;;;;;;4954830;28;20195;-82
2023/07/25 07:18:12;;;;;;;4.63;3.40;;;;;;;;;;4954281;28;20183;-82
2023/07/25 07:21:16;;;;;;;5.87;3.60;;;;;;;;;;4965750;28;20226;-82
2023/07/25 07:24:21;;;;;;;5.97;3.77;;;;;;;;;;4955103;28;20183;-82
2023/07/25 07:27:25;;;;;;;6.60;3.83;;;;;;;;;;4968871;28;20175;-81
2023/07/25 07:30:29;;;;;;;3.80;2.90;;;;;;;;;;4958703;28;20546;-82
2023/07/25 07:33:33;;;;;;;6.57;3.70;;;;;;;;;;4970040;28;20171;-87
2023/07/25 07:36:38;;;;;;;8.37;3.00;;;;;;;;;;4958756;28;20182;-82
2023/07/25 07:39:42;;;;;;;3.53;2.90;;;;;;;;;;4967895;28;20198;-82
2023/07/25 07:42:46;;;;;;;4.10;3.13;;;;;;;;;;4957914;28;20206;-82
2023/07/25 07:45:50;;;;;;;6.27;2.50;;;;;;;;;;4957755;28;20183;-82
2023/07/25 07:48:56;;;;;;;3.70;2.43;;;;;;;;;;4958166;28;20207;-82
2023/07/25 07:52:01;;;;;;;7.20;2.77;;;;;;;;;;4957461;28;20215;-83
2023/07/25 07:55:05;;;;;;;3.00;2.70;;;;;;;;;;4979473;28;20179;-82
2023/07/25 07:58:09;;;;;;;4.00;3.27;;;;;;;;;;4980291;28;20198;-82
2023/07/25 08:01:21;;;;;;;3.43;2.60;;;;;;;;;;4967930;28;20223;-82
2023/07/25 08:04:25;;;;;;;4.90;2.60;;;;;;;;;;4957568;28;20196;-82
2023/07/25 08:07:30;;;;;;;6.80;2.90;;;;;;;;;;4967728;28;20191;-82
2023/07/25 08:10:34;;;;;;;4.43;2.60;;;;;;;;;;4967927;28;20218;-81
2023/07/25 08:13:38;;;;;;;8.30;3.10;;;;;;;;;;4967661;28;20183;-81
2023/07/25 08:16:43;;;;;;;6.37;2.80;;;;;;;;;;4967626;28;20184;-82
2023/07/25 08:19:48;;;;;;;4.67;3.07;;;;;;;;;;4956512;28;20184;-82
2023/07/25 08:22:52;;;;;;;3.13;2.50;;;;;;;;;;4967994;28;20212;-82
2023/07/25 08:25:57;;;;;;;5.50;2.60;;;;;;;;;;4968130;28;20180;-82
2023/07/25 08:29:01;;;;;;;5.93;2.90;;;;;;;;;;4967963;28;20185;-81
2023/07/25 08:32:08;;;;;;;4.63;2.63;;;;;;;;;;4968254;28;20180;-81
2023/07/25 08:35:13;;;;;;;5.23;2.90;;;;;;;;;;4979665;28;20635;-82
2023/07/25 08:38:17;;;;;;;5.60;3.23;;;;;;;;;;4955383;28;20198;-81
2023/07/25 08:41:26;;;;;;;4.20;3.00;;;;;;;;;;4967688;28;20224;-82
2023/07/25 08:44:32;;;;;;;4.80;3.20;;;;;;;;;;4956537;28;20176;-82
2023/07/25 08:47:41;;;;;;;3.47;2.87;;;;;;;;;;4968303;28;20180;-82
2023/07/25 08:51:36;;;;;;;3.43;2.80;;;;;;;;;;4959265;28;20220;-86
2023/07/25 08:55:16;;;;;;;4.33;2.90;;;;;;;;;;4922280;28;20195;-89
2023/07/25 08:58:21;;;;;;;6.57;2.93;;;;;;;;;;4959436;28;20179;-86
2023/07/25 09:01:27;;;;;;;4.13;2.83;;;;;;;;;;4952962;28;20226;-86
2023/07/25 09:04:31;;;;;;;4.03;3.13;;;;;;;;;;4954008;28;20179;-86
2023/07/25 09:07:36;;;;;;;5.53;3.17;;;;;;;;;;4978192;28;20192;-86
2023/07/25 09:10:43;;;;;;;4.77;3.33;;;;;;;;;;4967820;28;20215;-86
2023/07/25 09:13:48;;;;;;;7.03;2.80;;;;;;;;;;4957214;28;20183;-86
2023/07/25 09:16:53;;;;;;;3.33;2.80;;;;;;;;;;4965996;28;20182;-86
2023/07/25 09:19:58;;;;;;;6.40;3.20;;;;;;;;;;4967808;28;20180;-85
2023/07/25 09:23:03;;;;;;;3.13;2.77;;;;;;;;;;4977020;28;20206;-86
2023/07/25 09:26:11;;;;;;;3.77;2.63;;;;;;;;;;4965906;28;20182;-86
2023/07/25 09:29:17;;;;;;;4.57;2.73;;;;;;;;;;4967071;28;20183;-87
2023/07/25 09:32:24;;;;;;;7.73;2.73;;;;;;;;;;4969200;28;20175;-86
2023/07/25 09:35:28;;;;;;;2.93;2.17;;;;;;;;;;4943170;28;20175;-88
2023/07/25 09:38:36;;;;;;;4.30;2.67;;;;;;;;;;4941816;28;20539;-88
2023/07/25 09:41:40;;;;;;;5.53;2.60;;;;;;;;;;4941720;28;20218;-87
2023/07/25 09:44:48;;;;;;;3.37;2.27;;;;;;;;;;4952773;28;20191;-90
2023/07/25 09:47:52;;;;;;;3.53;2.13;;;;;;;;;;4941810;28;20202;-89
2023/07/25 09:50:56;;;;;;;4.83;2.43;;;;;;;;;;4963435;28;20226;-91
2023/07/25 09:58:00;;;;;;;2.80;2.30;;;;;;;;;;4953442;28;20179;-91
2023/07/25 10:05:29;;;;;;;2.97;2.00;;;;;;;;;;4956927;28;20207;-90
2023/07/25 10:08:47;;;;;;;2.77;1.60;;;;;;;;;;4944696;28;20615;-92
2023/07/25 10:12:19;;;;;;;2.17;1.70;;;;;;;;;;4964443;28;20666;-92
2023/07/25 10:15:25;;;;;;;3.20;2.10;;;;;;;;;;4963611;28;20179;-92
2023/07/25 10:18:33;;;;;;;2.67;2.13;;;;;;;;;;4941229;28;20200;-92
2023/07/25 10:21:49;;;;;;;4.50;1.97;;;;;;;;;;4963327;28;20229;-91
2023/07/25 10:29:01;;;;;;;2.20;1.93;;;;;;;;;;5033134;28;20186;-86
2023/07/25 10:32:58;;;;;;;5.57;2.03;;;;;;;;;;5010658;28;20173;-88
2023/07/25 10:36:03;;;;;;;2.83;2.10;;;;;;;;;;5002036;28;20177;-84
2023/07/25 10:39:24;;;;;;;3.00;1.80;;;;;;;;;;5001796;28;20185;-84
2023/07/25 10:43:05;;;;;;;2.23;1.70;;;;;;;;;;5001199;28;20649;-85
2023/07/25 10:46:33;;;;;;;2.27;1.80;;;;;;;;;;5006245;28;20202;-86
2023/07/25 10:49:53;;;;;;;1.70;1.60;;;;;;;;;;5013146;28;20182;-88
2023/07/25 10:52:58;;;;;;;2.17;1.60;;;;;;;;;;5001657;28;20178;-88
2023/07/25 10:56:08;;;;;;;2.63;1.60;;;;;;;;;;5012711;28;20522;-86
2023/07/25 10:59:12;;;;;;;2.83;1.47;;;;;;;;;;5001709;28;20185;-89
2023/07/25 11:02:49;;;;;;;2.00;1.33;;;;;;;;;;5004275;28;20668;-88
2023/07/25 11:06:13;;;;;;;5.33;1.67;;;;;;;;;;4977140;28;20205;-88
2023/07/25 11:09:19;;;;;;;3.10;1.53;;;;;;;;;;5017123;28;20190;-88
2023/07/25 11:12:24;;;;;;;1.93;1.30;;;;;;;;;;5017286;28;20181;-89
2023/07/25 11:15:29;;;;;;;1.67;1.20;;;;;;;;;;5005331;28;20178;-88
2023/07/25 11:18:37;;;;;;;3.30;1.50;;;;;;;;;;5005473;28;20177;-89
2023/07/25 11:21:46;;;;;;;3.17;1.10;;;;;;;;;;5016522;28;20186;-87
2023/07/25 11:24:50;;;;;;;2.60;1.10;;;;;;;;;;4993560;28;20225;-86
2023/07/25 11:27:54;;;;;;;4.80;1.40;;;;;;;;;;5016157;28;20205;-87
2023/07/25 11:30:58;;;;;;;1.20;1.10;;;;;;;;;;5005178;28;20197;-87
2023/07/25 11:34:14;;;;;;;3.10;1.50;;;;;;;;;;5004864;28;20217;-87
2023/07/25 11:37:18;;;;;;;4.23;2.00;;;;;;;;;;4993262;28;20193;-87
2023/07/25 11:40:24;;;;;;;6.77;1.77;;;;;;;;;;5004522;28;20201;-87
2023/07/25 11:44:21;;;;;;;2.50;1.10;;;;;;;;;;4993218;28;20225;-87
2023/07/25 11:55:15;;;;;;;;;;;;;;;;;;;;;
2023/07/25 12:13:56;;;;;;;1.07;0.80;;;;;;;;;;4997216;28;20194;-89
2023/07/25 12:17:50;;;;;;;1.83;0.90;;;;;;;;;;4994952;28;20565;-89
2023/07/25 12:21:44;;;;;;;1.20;0.87;;;;;;;;;;4993756;28;20221;-89
2023/07/25 12:24:48;;;;;;;2.23;0.90;;;;;;;;;;4992523;28;20229;-89
2023/07/25 12:27:53;;;;;;;1.90;0.67;;;;;;;;;;5003983;28;20186;-89
2023/07/25 12:30:57;;;;;;;1.17;1.00;;;;;;;;;;4993024;28;20174;-88
2023/07/25 12:34:02;;;;;;;2.07;0.93;;;;;;;;;;5003846;28;20215;-87
2023/07/25 12:37:13;;;;;;;1.20;1.07;;;;;;;;;;4992853;28;20534;-87
2023/07/25 12:40:17;;;;;;;1.63;0.80;;;;;;;;;;4992326;28;20197;-88
2023/07/25 12:43:25;;;;;;;2.43;1.10;;;;;;;;;;5003905;28;20223;-87
2023/07/25 12:46:29;;;;;;;1.52;1.00;;;;;;;;;;5003834;28;20184;-88
2023/07/25 12:49:33;;;;;;;1.42;0.65;;;;;;;;;;5014775;28;20198;-87
2023/07/25 12:52:39;;;;;;;1.65;0.95;;;;;;;;;;5003226;28;20555;-88
2023/07/25 12:55:44;;;;;;;2.83;0.90;;;;;;;;;;5003714;28;20175;-88
2023/07/25 12:58:52;;;;;;;1.33;0.63;;;;;;;;;;5004075;28;20183;-87
2023/07/25 13:01:55;;;;;;;1.50;0.82;;;;;;;;;;4992290;28;20179;-87
2023/07/25 13:04:59;;;;;;;0.90;0.80;;;;;;;;;;5002864;28;20228;-88
2023/07/25 13:08:04;;;;;;;1.35;1.05;;;;;;;;;;5003259;28;20189;-88
2023/07/25 13:11:09;;;;;;;1.63;1.05;;;;;;;;;;5003348;28;20178;-88
2023/07/25 13:14:13;;;;;;;1.40;1.20;;;;;;;;;;5003059;28;20214;-87
2023/07/25 13:17:17;;;;;;;1.33;0.98;;;;;;;;;;5003284;28;20179;-88
2023/07/25 13:20:22;;;;;;;2.20;1.00;;;;;;;;;;5014475;28;20535;-88
2023/07/25 13:23:26;;;;;;;1.50;1.20;;;;;;;;;;5002098;28;20232;-88
2023/07/25 13:26:31;;;;;;;2.20;1.15;;;;;;;;;;5003269;28;20186;-88
2023/07/25 13:29:34;;;;;;;2.05;1.17;;;;;;;;;;5002916;28;20180;-86
2023/07/25 13:32:40;;;;;;;2.25;1.25;;;;;;;;;;5002875;28;20518;-86
2023/07/25 13:35:44;;;;;;;0.93;0.82;;;;;;;;;;5002691;28;20177;-86
2023/07/25 13:38:48;;;;;;;11.27;2.05;;;;;;;;;;5002899;28;20182;-80
2023/07/25 13:41:53;;;;;;;1.90;1.40;;;;;;;;;;5002596;28;20176;-82
2023/07/25 13:44:57;;;;;;;1.88;1.10;;;;;;;;;;5014130;28;20679;-82
2023/07/25 13:48:01;;;;;;;2.00;1.30;;;;;;;;;;5014226;28;20180;-82
2023/07/25 13:51:05;;;;;;;4.20;1.60;;;;;;;;;;5014388;28;20182;-82
2023/07/25 13:54:09;;;;;;;1.50;1.33;;;;;;;;;;5014111;28;20209;-82
2023/07/25 13:57:13;;;;;;;2.03;1.40;;;;;;;;;;5014217;28;20178;-81
2023/07/25 14:00:18;;;;;;;2.40;1.35;;;;;;;;;;5016384;28;20185;-82
2023/07/25 14:03:21;;;;;;;1.40;1.27;;;;;;;;;;5004548;28;20214;-82
2023/07/25 14:06:25;;;;;;;2.90;1.30;;;;;;;;;;5004330;28;20638;-81
2023/07/25 14:09:29;;;;;;;3.60;1.30;;;;;;;;;;5014941;28;20181;-82
2023/07/25 14:12:34;;;;;;;1.42;1.33;;;;;;;;;;5015779;28;20188;-81
2023/07/25 14:15:38;;;;;;;1.40;1.20;;;;;;;;;;4994043;28;20533;-82
2023/07/25 14:18:42;;;;;;;3.22;1.58;;;;;;;;;;5014132;28;20185;-82
2023/07/25 14:21:47;;;;;;;2.35;1.50;;;;;;;;;;5014120;28;20188;-81
2023/07/25 14:24:51;;;;;;;2.33;1.50;;;;;;;;;;5002781;28;20233;-81
2023/07/25 14:27:55;;;;;;;1.80;1.57;;;;;;;;;;5014250;28;20189;-81
2023/07/25 14:31:00;;;;;;;5.47;1.53;;;;;;;;;;5003020;28;20181;-81
2023/07/25 14:34:04;;;;;;;3.00;1.40;;;;;;;;;;5013008;28;20213;-81
2023/07/25 14:37:08;;;;;;;5.47;1.40;;;;;;;;;;5002135;28;20190;-81
2023/07/25 14:40:12;;;;;;;5.43;2.27;;;;;;;;;;5014374;28;20191;-81
2023/07/25 14:43:16;;;;;;;7.97;1.90;;;;;;;;;;5001840;28;20214;-81
2023/07/25 14:46:21;;;;;;;2.90;1.80;;;;;;;;;;5024539;28;20482;-81
2023/07/25 14:49:25;;;;;;;4.23;1.20;;;;;;;;;;5002180;28;20205;-81
2023/07/25 14:52:29;;;;;;;4.70;1.70;;;;;;;;;;5001881;28;20193;-81
2023/07/25 14:55:33;;;;;;;5.17;1.37;;;;;;;;;;5001805;28;20178;-81
2023/07/25 14:58:37;;;;;;;4.07;1.30;;;;;;;;;;5013093;28;20185;-81
2023/07/25 15:01:41;;;;;;;4.67;1.83;;;;;;;;;;5002262;28;20185;-81
2023/07/25 15:04:45;;;;;;;7.97;1.57;;;;;;;;;;5013595;28;20221;-81
2023/07/25 15:07:50;;;;;;;3.07;1.30;;;;;;;;;;5002420;28;20182;-81
2023/07/25 15:10:54;;;;;;;3.23;1.50;;;;;;;;;;4991117;28;20178;-81
2023/07/25 15:13:58;;;;;;;2.73;1.13;;;;;;;;;;5002335;28;20209;-80
2023/07/25 15:17:02;;;;;;;2.07;1.20;;;;;;;;;;5002476;28;20177;-80
2023/07/25 15:20:10;;;;;;;3.17;1.20;;;;;;;;;;5002311;28;20181;-80
2023/07/25 15:23:14;;;;;;;3.53;1.30;;;;;;;;;;5013674;28;20213;-80
2023/07/25 15:26:18;;;;;;;1.67;1.27;;;;;;;;;;5025286;28;20165;-80
2023/07/25 15:29:22;;;;;;;4.90;1.33;;;;;;;;;;5013261;28;20521;-80
2023/07/25 15:32:26;;;;;;;2.10;1.20;;;;;;;;;;5013568;28;20181;-79
2023/07/25 15:35:30;;;;;;;7.40;1.30;;;;;;;;;;5013275;28;20522;-79
2023/07/25 15:38:35;;;;;;;1.83;1.23;;;;;;;;;;5012399;28;20182;-85
2023/07/25 15:41:39;;;;;;;1.73;1.27;;;;;;;;;;5012561;28;20173;-85
2023/07/25 15:44:43;;;;;;;2.70;1.10;;;;;;;;;;5001538;28;20221;-85
2023/07/25 15:47:47;;;;;;;3.13;1.10;;;;;;;;;;5003370;28;20205;-85
2023/07/25 15:50:51;;;;;;;1.90;0.97;;;;;;;;;;5015589;28;20185;-85
2023/07/25 15:53:55;;;;;;;1.80;1.20;;;;;;;;;;5015966;28;20225;-85
2023/07/25 15:56:59;;;;;;;1.93;1.13;;;;;;;;;;5015980;28;20549;-85
2023/07/25 16:00:06;;;;;;;2.13;1.13;;;;;;;;;;5004271;28;20197;-84
2023/07/25 16:03:12;;;;;;;3.13;1.37;;;;;;;;;;5004932;28;20624;-85
2023/07/25 16:06:16;;;;;;;4.70;1.30;;;;;;;;;;5015575;28;20181;-84
2023/07/25 16:09:21;;;;;;;1.80;1.23;;;;;;;;;;5004358;28;20206;-84
2023/07/25 16:12:25;;;;;;;1.90;1.20;;;;;;;;;;5016028;28;20201;-86
2023/07/25 16:15:32;;;;;;;1.47;1.10;;;;;;;;;;5015314;28;20506;-85
2023/07/25 16:18:36;;;;;;;3.40;1.20;;;;;;;;;;5004299;28;20178;-85
2023/07/25 16:21:40;;;;;;;4.90;1.20;;;;;;;;;;4993141;28;20182;-85
2023/07/25 16:24:45;;;;;;;1.73;1.23;;;;;;;;;;5020339;23;20231;-87
2023/07/25 16:27:51;;;;;;;3.10;1.10;;;;;;;;;;4976765;28;20179;-87
2023/07/25 16:30:55;;;;;;;2.70;1.10;;;;;;;;;;4965833;28;20202;-87
2023/07/25 16:34:00;;;;;;;6.63;1.20;;;;;;;;;;4976381;28;20222;-87
2023/07/25 16:37:04;;;;;;;3.53;1.00;;;;;;;;;;4987775;28;20178;-88
2023/07/25 16:40:09;;;;;;;1.27;1.07;;;;;;;;;;4976063;28;20546;-87
2023/07/25 16:43:13;;;;;;;6.73;1.23;;;;;;;;;;4987097;28;20179;-87
2023/07/25 16:46:18;;;;;;;4.50;1.40;;;;;;;;;;4965126;28;20203;-88
2023/07/25 16:49:21;;;;;;;2.10;1.17;;;;;;;;;;4965215;28;20191;-87
2023/07/25 16:52:26;;;;;;;2.10;1.00;;;;;;;;;;4987454;28;20187;-87
2023/07/25 16:55:30;;;;;;;4.43;1.30;;;;;;;;;;4975561;28;20673;-88
2023/07/25 16:58:34;;;;;;;1.80;1.30;;;;;;;;;;4963894;28;20175;-88
2023/07/25 17:01:38;;;;;;;2.83;1.27;;;;;;;;;;4975926;28;20179;-87
2023/07/25 17:04:42;;;;;;;2.53;1.20;;;;;;;;;;4964396;28;20226;-88
2023/07/25 17:07:47;;;;;;;2.93;1.30;;;;;;;;;;4975713;28;20198;-88
2023/07/25 17:10:51;;;;;;;3.30;1.60;;;;;;;;;;4975870;28;20187;-87
2023/07/25 17:13:54;;;;;;;2.37;1.30;;;;;;;;;;4964881;28;20217;-87
2023/07/25 17:16:59;;;;;;;2.80;1.43;;;;;;;;;;4953649;28;20179;-87
2023/07/25 17:20:05;;;;;;;2.27;1.40;;;;;;;;;;4975405;28;20219;-87
2023/07/25 17:23:10;;;;;;;3.73;1.37;;;;;;;;;;4964473;28;20183;-88
2023/07/25 17:26:14;;;;;;;5.67;1.33;;;;;;;;;;4963773;28;20231;-87
2023/07/25 17:29:18;;;;;;;3.67;1.23;;;;;;;;;;4975114;28;20527;-88
2023/07/25 17:32:22;;;;;;;4.87;1.37;;;;;;;;;;4975547;28;20187;-88
2023/07/25 17:35:28;;;;;;;3.03;1.27;;;;;;;;;;4963767;28;20215;-88
2023/07/25 17:39:37;;;;;;;4.27;1.50;;;;;;;;;;4963899;28;20179;-88
2023/07/25 17:43:24;;;;;;;3.07;1.30;;;;;;;;;;4981118;28;20179;-87
2023/07/25 17:46:28;;;;;;;2.67;1.47;;;;;;;;;;4986140;28;20211;-88
2023/07/25 17:49:32;;;;;;;1.60;1.20;;;;;;;;;;4963658;28;20182;-87
2023/07/25 17:52:37;;;;;;;2.90;1.20;;;;;;;;;;4974901;28;20182;-87
2023/07/25 17:55:43;;;;;;;2.10;1.23;;;;;;;;;;4974617;28;20218;-87
2023/07/25 17:58:47;;;;;;;3.47;1.10;;;;;;;;;;4952861;28;20183;-88
2023/07/25 18:01:51;;;;;;;1.60;1.20;;;;;;;;;;4963584;28;20187;-88
2023/07/25 18:04:58;;;;;;;3.00;1.30;;;;;;;;;;4974627;28;20226;-87
2023/07/25 18:08:03;;;;;;;4.30;1.30;;;;;;;;;;4975142;28;20519;-88
2023/07/25 18:11:07;;;;;;;5.10;1.10;;;;;;;;;;4963460;28;20182;-87
2023/07/25 18:14:11;;;;;;;2.57;0.97;;;;;;;;;;4963480;28;20558;-87
2023/07/25 18:17:15;;;;;;;2.37;1.17;;;;;;;;;;4974523;28;20518;-88
2023/07/25 18:20:19;;;;;;;1.83;1.10;;;;;;;;;;4974351;28;20191;-88
2023/07/25 18:23:24;;;;;;;2.37;1.10;;;;;;;;;;4974236;28;20191;-87
2023/07/25 18:26:28;;;;;;;4.40;1.20;;;;;;;;;;4985102;28;20222;-87
2023/07/25 18:29:32;;;;;;;1.97;1.17;;;;;;;;;;4974367;28;20629;-87
2023/07/25 18:32:36;;;;;;;4.40;1.17;;;;;;;;;;4974317;28;20187;-87
2023/07/25 18:35:40;;;;;;;3.13;1.30;;;;;;;;;;4974503;28;20214;-87
2023/07/25 18:38:44;;;;;;;2.60;1.43;;;;;;;;;;4974561;28;20179;-87
2023/07/25 18:41:49;;;;;;;3.13;1.30;;;;;;;;;;4974001;28;20182;-87
2023/07/25 18:44:53;;;;;;;3.37;1.20;;;;;;;;;;4963071;28;20214;-87
2023/07/25 18:47:57;;;;;;;1.80;1.23;;;;;;;;;;4952211;28;20183;-87
2023/07/25 18:51:01;;;;;;;2.60;1.30;;;;;;;;;;4973964;28;20186;-87
2023/07/25 18:54:05;;;;;;;2.60;1.30;;;;;;;;;;4985050;28;20681;-88
2023/07/25 18:57:17;;;;;;;1.77;1.10;;;;;;;;;;4963128;28;20634;-87
2023/07/25 19:00:21;;;;;;;4.13;1.53;;;;;;;;;;4973858;28;20199;-87
2023/07/25 19:03:29;;;;;;;1.87;1.67;;;;;;;;;;4974011;28;20182;-87
2023/07/25 19:06:33;;;;;;;1.57;1.23;;;;;;;;;;4963124;28;20215;-87
2023/07/25 19:09:37;;;;;;;2.20;1.03;;;;;;;;;;4985651;28;20198;-88
2023/07/25 19:12:41;;;;;;;2.63;1.13;;;;;;;;;;4962899;28;20207;-88